FFT1550 KATL-KJAX
Flight info
| Callsign | FFT1550 |
|---|---|
| Flight time | N/A |
| Altitude | 26000 |
| Route | VRSTY3 NOKIE DUCHY OHDEA2 |
| Aircraft | A20N/M-SDE2E3FGHIRWXY/LB1 |
Departure
| Time | 2026-05-05 23:15 |
|---|---|
| Airport | Hartsfield Jackson Atlanta International Airport (KATL) |
Arrival
| Time | N/A |
|---|---|
| Airport | Jacksonville International Airport (KJAX) |
| Time | Latitude | Longitude | Altitude | Speed | Heading |
|---|---|---|---|---|---|
| 2026-05-05 22:55 | 33.63963 | -84.44196 | 1021 ft | 0 kts | 270° |
| 2026-05-05 23:03 | 33.63963 | -84.44186 | 1021 ft | 2 kts | 270° |
| 2026-05-05 23:04 | 33.63963 | -84.44168 | 1021 ft | 2 kts | 270° |
| 2026-05-05 23:04 | 33.63963 | -84.44151 | 1021 ft | 2 kts | 270° |
| 2026-05-05 23:04 | 33.63963 | -84.44132 | 1021 ft | 1 kts | 264° |
| 2026-05-05 23:04 | 33.63970 | -84.44118 | 1021 ft | 2 kts | 208° |
| 2026-05-05 23:05 | 33.63984 | -84.44115 | 1021 ft | 1 kts | 171° |
| 2026-05-05 23:05 | 33.63988 | -84.44116 | 1021 ft | 0 kts | 174° |
| 2026-05-05 23:08 | 33.63985 | -84.44116 | 1021 ft | 0 kts | 180° |
| 2026-05-05 23:08 | 33.63982 | -84.44116 | 1021 ft | 0 kts | 180° |
| 2026-05-05 23:08 | 33.63955 | -84.44116 | 1021 ft | 3 kts | 180° |
| 2026-05-05 23:09 | 33.63953 | -84.44116 | 1021 ft | 4 kts | 180° |
| 2026-05-05 23:09 | 33.63917 | -84.44116 | 1021 ft | 6 kts | 181° |
| 2026-05-05 23:09 | 33.63858 | -84.44118 | 1021 ft | 9 kts | 181° |
| 2026-05-05 23:09 | 33.63782 | -84.44119 | 1021 ft | 12 kts | 181° |
| 2026-05-05 23:10 | 33.63692 | -84.44106 | 1021 ft | 14 kts | 150° |
| 2026-05-05 23:10 | 33.63663 | -84.44001 | 1021 ft | 14 kts | 90° |
| 2026-05-05 23:10 | 33.63662 | -84.43874 | 1021 ft | 16 kts | 90° |
| 2026-05-05 23:10 | 33.63662 | -84.43729 | 1021 ft | 18 kts | 91° |
| 2026-05-05 23:11 | 33.63662 | -84.43568 | 1021 ft | 20 kts | 89° |
| 2026-05-05 23:11 | 33.63663 | -84.43393 | 1021 ft | 21 kts | 90° |
| 2026-05-05 23:11 | 33.63663 | -84.43209 | 1021 ft | 22 kts | 90° |
| 2026-05-05 23:11 | 33.63661 | -84.43014 | 1021 ft | 23 kts | 92° |
| 2026-05-05 23:12 | 33.63662 | -84.42810 | 1021 ft | 24 kts | 92° |
| 2026-05-05 23:12 | 33.63655 | -84.42600 | 1021 ft | 25 kts | 91° |
| 2026-05-05 23:12 | 33.63655 | -84.42387 | 1021 ft | 25 kts | 91° |
| 2026-05-05 23:12 | 33.63652 | -84.42243 | 1021 ft | 26 kts | 92° |
| 2026-05-05 23:13 | 33.63654 | -84.41933 | 1018 ft | 28 kts | 88° |
| 2026-05-05 23:13 | 33.63653 | -84.41697 | 1018 ft | 28 kts | 86° |
| 2026-05-05 23:13 | 33.63657 | -84.41460 | 1016 ft | 29 kts | 89° |
| 2026-05-05 23:13 | 33.63655 | -84.41213 | 1010 ft | 30 kts | 90° |
| 2026-05-05 23:14 | 33.63598 | -84.41035 | 1004 ft | 17 kts | 172° |
| 2026-05-05 23:14 | 33.63481 | -84.41044 | 1004 ft | 11 kts | 220° |
| 2026-05-05 23:14 | 33.63472 | -84.41123 | 1005 ft | 9 kts | 267° |
| 2026-05-05 23:14 | 33.63471 | -84.41304 | 1006 ft | 53 kts | 270° |
| 2026-05-05 23:15 | 33.63464 | -84.42073 | 1009 ft | 127 kts | 270° |
| 2026-05-05 23:15 | 33.63482 | -84.43332 | 1222 ft | 164 kts | 268° |
| 2026-05-05 23:15 | 33.63526 | -84.44697 | 1866 ft | 169 kts | 269° |
| 2026-05-05 23:15 | 33.63596 | -84.46101 | 2637 ft | 171 kts | 269° |
| 2026-05-05 23:16 | 33.63697 | -84.47488 | 3340 ft | 169 kts | 268° |